Time;durP1;ratioP1;P1;durP2;ratioP2;P2;SDS_P1;SDS_P2;PMS_P1;PMS_P2;Temp;Humidity;BMP_temperature;BMP_pressure;BME280_temperature;BME280_humidity;BME280_pressure;Samples;Min_cycle;Max_cycle;Signal;HPM_P1;HPM_P2
2023/08/01 00:00:43;;;;;;;0.30;0.28;;;20.70;66.40;;;;;;5099468;27;20027;-73
2023/08/01 00:03:09;;;;;;;0.50;0.20;;;20.70;66.30;;;;;;5116417;27;20073;-77
2023/08/01 00:05:55;;;;;;;;;;;20.80;66.20;;;;;;5135205;27;20491;-77
2023/08/01 00:08:23;;;;;;;1.00;0.68;;;20.80;65.80;;;;;;5116463;27;19915;-73
2023/08/01 00:10:49;;;;;;;0.20;0.20;;;20.80;66.00;;;;;;5116345;27;20027;-73
2023/08/01 00:13:15;;;;;;;;;;;20.80;66.00;;;;;;5100068;27;20039;-77
2023/08/01 00:15:41;;;;;;;0.43;0.43;;;20.80;66.20;;;;;;5116086;27;20373;-77
2023/08/01 00:18:07;;;;;;;;;;;20.80;66.50;;;;;;5117042;27;20468;-73
2023/08/01 00:20:33;;;;;;;1.02;0.70;;;20.80;66.40;;;;;;5116016;27;19961;-73
2023/08/01 00:22:59;;;;;;;;;;;20.80;66.40;;;;;;5116994;27;20089;-73
2023/08/01 00:25:25;;;;;;;0.77;0.68;;;20.80;66.20;;;;;;5115961;27;19911;-73
2023/08/01 00:27:54;;;;;;;0.65;0.30;;;20.70;66.30;;;;;;5116645;27;20028;-74
2023/08/01 00:30:20;;;;;;;0.28;0.28;;;20.80;66.50;;;;;;5134189;27;20460;-77
2023/08/01 00:32:46;;;;;;;0.43;0.40;;;20.70;66.80;;;;;;5116380;27;20391;-73
2023/08/01 00:35:12;;;;;;;;;;;20.70;66.90;;;;;;5116189;27;20548;-75
2023/08/01 00:38:30;;;;;;;0.52;0.30;;;20.70;66.90;;;;;;5115842;27;19915;-77
2023/08/01 00:40:34;;;;;;;0.20;0.20;;;20.70;67.00;;;;;;5116529;27;20114;-74
2023/08/01 00:43:03;;;;;;;0.50;0.50;;;20.60;66.90;;;;;;5115870;27;20042;-74
2023/08/01 00:45:32;;;;;;;0.52;0.20;;;20.60;67.20;;;;;;5115586;27;20030;-74
2023/08/01 00:47:58;;;;;;;0.73;0.32;;;20.60;67.40;;;;;;5134217;27;20479;-77
2023/08/01 00:50:24;;;;;;;;;;;20.60;67.70;;;;;;5099164;27;20604;-74
2023/08/01 00:52:52;;;;;;;0.10;0.10;;;20.60;67.20;;;;;;5115719;27;19923;-77
2023/08/01 00:55:19;;;;;;;0.90;0.60;;;20.60;67.30;;;;;;5133807;27;20045;-74
2023/08/01 00:57:46;;;;;;;0.10;0.10;;;20.50;66.70;;;;;;5115736;27;20045;-77
2023/08/01 01:00:12;;;;;;;0.20;0.20;;;20.50;67.30;;;;;;5098065;27;20395;-73
2023/08/01 01:02:42;;;;;;;0.32;0.32;;;20.50;67.60;;;;;;5115497;27;20400;-77
2023/08/01 01:05:08;;;;;;;1.13;0.57;;;20.40;67.70;;;;;;5133577;27;20103;-77
2023/08/01 01:07:47;;;;;;;;;;;;;;;;;;;;;
2023/08/01 01:10:13;;;;;;;0.75;0.55;;;20.40;67.70;;;;;;5133566;27;20396;-73
2023/08/01 01:12:39;;;;;;;;;;;20.30;67.80;;;;;;5116005;27;20039;-77
2023/08/01 01:15:06;;;;;;;0.85;0.28;;;20.30;67.90;;;;;;5133409;27;19911;-74
2023/08/01 01:17:32;;;;;;;0.28;0.25;;;20.20;67.40;;;;;;5115244;27;20103;-73
2023/08/01 01:20:14;;;;;;;0.40;0.40;;;20.20;67.70;;;;;;5115486;27;20050;-74
2023/08/01 01:23:38;;;;;;;0.20;0.20;;;20.20;67.60;;;;;;5115652;27;20499;-78
2023/08/01 01:26:06;;;;;;;0.95;0.50;;;20.20;67.50;;;;;;5049512;28;20052;-74
2023/08/01 01:28:34;;;;;;;0.63;0.63;;;20.20;67.50;;;;;;5049848;28;20033;-78
2023/08/01 01:31:23;;;;;;;0.25;0.20;;;20.20;67.70;;;;;;5031683;28;20033;-73
2023/08/01 01:33:51;;;;;;;0.43;0.43;;;20.20;67.50;;;;;;5049569;28;20056;-73
2023/08/01 01:36:27;;;;;;;0.10;0.10;;;20.10;67.80;;;;;;5049675;28;20072;-74
2023/08/01 01:39:11;;;;;;;0.10;0.10;;;20.10;67.70;;;;;;5050126;28;20060;-74
2023/08/01 01:42:00;;;;;;;0.30;0.25;;;20.00;67.90;;;;;;5049447;28;20476;-74
2023/08/01 01:44:49;;;;;;;0.22;0.20;;;20.00;67.80;;;;;;5049916;28;20390;-77
2023/08/01 01:47:15;;;;;;;0.17;0.17;;;20.00;67.90;;;;;;5049350;28;20045;-74
2023/08/01 01:49:41;;;;;;;2.58;0.80;;;20.00;68.10;;;;;;5033511;28;20037;-74
2023/08/01 01:52:19;;;;;;;;;;;19.90;67.80;;;;;;5096823;28;20096;-74
2023/08/01 01:54:47;;;;;;;0.52;0.52;;;19.90;67.60;;;;;;5130298;28;19916;-74
2023/08/01 01:57:13;;;;;;;0.15;0.15;;;19.80;67.50;;;;;;5114766;28;20062;-78
2023/08/01 01:59:39;;;;;;;0.10;0.10;;;19.80;67.80;;;;;;5114350;28;20475;-77
2023/08/01 02:02:05;;;;;;;;;;;19.80;67.70;;;;;;5133140;28;20511;-78
2023/08/01 02:04:40;;;;;;;0.30;0.30;;;19.80;67.00;;;;;;5114811;28;19915;-74
2023/08/01 02:07:22;;;;;;;0.45;0.32;;;19.80;67.70;;;;;;5132773;28;20166;-74
2023/08/01 02:09:50;;;;;;;0.20;0.20;;;19.80;67.80;;;;;;5115046;28;20394;-74
2023/08/01 02:12:40;;;;;;;0.10;0.10;;;19.80;67.90;;;;;;5113970;28;20062;-77
2023/08/01 02:15:07;;;;;;;0.17;0.17;;;19.90;67.80;;;;;;5132851;28;20498;-78
2023/08/01 02:17:35;;;;;;;1.23;0.75;;;19.90;67.70;;;;;;5114649;28;20114;-78
2023/08/01 02:22:46;;;;;;;0.57;0.28;;;19.90;67.70;;;;;;5117670;28;20182;-77
2023/08/01 02:25:12;;;;;;;;;;;19.90;67.80;;;;;;5114856;28;20039;-78
2023/08/01 02:27:38;;;;;;;0.32;0.20;;;19.90;67.60;;;;;;5114967;28;19960;-78
2023/08/01 02:30:07;;;;;;;;;;;19.80;67.60;;;;;;5133150;28;20034;-78
2023/08/01 02:32:45;;;;;;;0.57;0.20;;;19.80;67.90;;;;;;5132871;28;19926;-74
2023/08/01 02:35:14;;;;;;;0.17;0.17;;;19.80;67.90;;;;;;5132636;28;20023;-78
2023/08/01 02:37:55;;;;;;;1.65;0.30;;;19.80;68.00;;;;;;5133090;27;20109;-78
2023/08/01 02:40:27;;;;;;;0.43;0.30;;;19.80;67.90;;;;;;5117965;27;20385;-78
2023/08/01 02:42:53;;;;;;;1.00;0.52;;;19.80;68.00;;;;;;5101541;27;20502;-74
2023/08/01 02:45:19;;;;;;;;;;;19.90;68.10;;;;;;5118502;27;20050;-74
2023/08/01 02:47:47;;;;;;;2.28;1.02;;;19.90;68.00;;;;;;5118413;27;19916;-78
2023/08/01 02:50:13;;;;;;;0.45;0.40;;;19.90;68.10;;;;;;5136299;27;20042;-78
2023/08/01 02:52:42;;;;;;;;;;;19.90;68.30;;;;;;5118770;27;20039;-78
2023/08/01 02:55:08;;;;;;;0.43;0.30;;;19.90;68.20;;;;;;5118052;27;20301;-74
2023/08/01 02:57:40;;;;;;;0.63;0.40;;;19.90;67.70;;;;;;5118014;27;20035;-74
2023/08/01 03:00:11;;;;;;;3.25;0.50;;;19.90;68.40;;;;;;5100941;27;20558;-78
2023/08/01 03:02:42;;;;;;;0.45;0.40;;;19.80;67.70;;;;;;5118397;27;20522;-78
2023/08/01 03:05:09;;;;;;;0.20;0.20;;;19.90;68.50;;;;;;5117486;27;20503;-74
2023/08/01 03:07:36;;;;;;;0.10;0.10;;;19.90;68.80;;;;;;5117998;27;20023;-74
2023/08/01 03:10:02;;;;;;;0.20;0.20;;;19.90;68.40;;;;;;5100821;27;20424;-74
2023/08/01 03:12:28;;;;;;;0.30;0.30;;;19.90;68.40;;;;;;5135847;27;20027;-74
2023/08/01 03:14:57;;;;;;;;;;;19.90;69.10;;;;;;5136548;27;20102;-74
2023/08/01 03:17:29;;;;;;;0.93;0.55;;;19.90;68.70;;;;;;5117756;27;19968;-74
2023/08/01 03:19:55;;;;;;;1.05;0.75;;;19.90;69.10;;;;;;5117553;27;20402;-74
2023/08/01 03:22:21;;;;;;;;;;;19.90;70.00;;;;;;5117967;27;20059;-79
2023/08/01 03:24:47;;;;;;;0.53;0.30;;;19.80;69.50;;;;;;5117591;27;20310;-78
2023/08/01 03:27:13;;;;;;;;;;;19.70;71.20;;;;;;5117678;27;20052;-79
2023/08/01 03:29:42;;;;;;;0.13;0.13;;;19.60;71.00;;;;;;5117493;27;19968;-76
2023/08/01 03:32:11;;;;;;;0.57;0.40;;;19.60;71.80;;;;;;5099958;27;20440;-78
2023/08/01 03:34:39;;;;;;;0.80;0.75;;;19.50;71.90;;;;;;5117421;27;20086;-75
2023/08/01 03:37:07;;;;;;;0.13;0.13;;;19.40;71.80;;;;;;5117038;27;20035;-75
2023/08/01 03:39:33;;;;;;;0.32;0.22;;;19.50;71.70;;;;;;5117329;27;20069;-78
2023/08/01 03:42:20;;;;;;;;;;;19.50;71.40;;;;;;5117260;27;20032;-78
2023/08/01 03:44:46;;;;;;;0.60;0.50;;;19.50;71.10;;;;;;5117268;27;19960;-78
2023/08/01 03:47:15;;;;;;;;;;;19.50;72.00;;;;;;5135762;27;20035;-78
2023/08/01 03:49:41;;;;;;;0.45;0.45;;;19.40;72.50;;;;;;5116572;27;19918;-75
2023/08/01 03:52:10;;;;;;;;;;;19.40;72.10;;;;;;5135638;27;20499;-78
2023/08/01 03:55:16;;;;;;;0.47;0.30;;;19.30;71.20;;;;;;5116965;27;19915;-77
2023/08/01 03:58:01;;;;;;;0.32;0.32;;;19.40;71.80;;;;;;5089286;28;20032;-77
2023/08/01 04:00:53;;;;;;;0.30;0.30;;;19.40;71.90;;;;;;5091255;28;20059;-75
2023/08/01 04:03:19;;;;;;;0.20;0.20;;;19.30;72.10;;;;;;5086318;28;20062;-77
2023/08/01 04:05:45;;;;;;;;;;;19.30;72.40;;;;;;5074876;28;20387;-74
2023/08/01 04:08:14;;;;;;;0.10;0.10;;;19.40;71.90;;;;;;5074881;28;19923;-75
2023/08/01 04:10:45;;;;;;;0.93;0.50;;;19.40;71.70;;;;;;5074429;28;20063;-77
2023/08/01 04:13:18;;;;;;;1.50;0.60;;;19.40;71.50;;;;;;5091653;28;20085;-77
2023/08/01 04:15:45;;;;;;;0.35;0.20;;;19.50;71.70;;;;;;5091148;28;20035;-75
2023/08/01 04:18:11;;;;;;;1.30;0.88;;;19.50;71.70;;;;;;5074757;28;20055;-75
2023/08/01 04:20:57;;;;;;;0.13;0.10;;;19.50;71.50;;;;;;5074001;28;20039;-75
2023/08/01 04:23:23;;;;;;;0.40;0.30;;;19.60;71.40;;;;;;5057066;28;20048;-77
2023/08/01 04:25:49;;;;;;;0.50;0.50;;;19.70;71.50;;;;;;5073807;28;20115;-78
2023/08/01 04:28:59;;;;;;;0.25;0.20;;;19.70;71.20;;;;;;5082099;27;20527;-77
2023/08/01 04:31:43;;;;;;;0.10;0.10;;;19.80;71.00;;;;;;5128862;27;20043;-77
2023/08/01 04:34:12;;;;;;;0.20;0.20;;;19.70;70.50;;;;;;5134589;27;20031;-75
2023/08/01 04:36:38;;;;;;;1.13;0.82;;;19.80;71.00;;;;;;5115335;27;20100;-77
2023/08/01 04:39:05;;;;;;;0.10;0.10;;;19.70;71.00;;;;;;5116281;27;20384;-75
2023/08/01 04:41:31;;;;;;;1.00;0.50;;;19.70;71.30;;;;;;5115738;27;20038;-75
2023/08/01 04:43:57;;;;;;;0.10;0.10;;;19.70;71.60;;;;;;5115976;27;20376;-77
2023/08/01 04:46:23;;;;;;;;;;;19.70;71.50;;;;;;5134602;27;20031;-77
2023/08/01 04:48:49;;;;;;;0.28;0.28;;;19.70;71.40;;;;;;5115901;27;20393;-75
2023/08/01 04:51:15;;;;;;;0.17;0.17;;;19.70;71.10;;;;;;5115595;27;20035;-75
2023/08/01 04:53:43;;;;;;;;;;;19.70;71.00;;;;;;5134654;27;20039;-77
2023/08/01 04:56:12;;;;;;;0.35;0.35;;;19.70;71.00;;;;;;5115345;27;19915;-76
2023/08/01 04:58:38;;;;;;;0.10;0.10;;;19.70;70.80;;;;;;5134175;27;20031;-75
2023/08/01 05:01:04;;;;;;;;;;;19.80;70.80;;;;;;5115184;27;20062;-75
2023/08/01 05:03:30;;;;;;;0.15;0.15;;;19.80;70.90;;;;;;5133487;27;19919;-76
2023/08/01 05:05:56;;;;;;;;;;;19.80;70.70;;;;;;5134034;27;20038;-75
2023/08/01 05:08:24;;;;;;;0.10;0.10;;;19.80;70.70;;;;;;5115689;27;19919;-74
2023/08/01 05:10:54;;;;;;;0.20;0.20;;;19.80;70.60;;;;;;5115203;27;20031;-75
2023/08/01 05:13:20;;;;;;;0.20;0.20;;;19.90;70.70;;;;;;5115534;27;20027;-74
2023/08/01 05:15:49;;;;;;;;;;;19.90;70.60;;;;;;5115489;27;20035;-77
2023/08/01 05:18:34;;;;;;;0.10;0.10;;;20.00;70.50;;;;;;5098955;27;20048;-77
2023/08/01 05:21:00;;;;;;;0.10;0.10;;;20.00;70.30;;;;;;5115102;27;20391;-74
2023/08/01 05:23:26;;;;;;;;;;;20.10;70.10;;;;;;5116105;27;20114;-75
2023/08/01 05:28:56;;;;;;;0.25;0.25;;;20.10;69.90;;;;;;5070074;28;20052;-75
2023/08/01 05:31:21;;;;;;;;;;;20.30;70.00;;;;;;5036497;28;20041;-74
2023/08/01 05:33:47;;;;;;;1.83;0.95;;;20.30;70.00;;;;;;5053305;28;19927;-77
2023/08/01 05:36:16;;;;;;;1.08;0.55;;;20.40;69.80;;;;;;5069539;28;20429;-74
2023/08/01 05:39:08;;;;;;;0.38;0.28;;;20.50;69.80;;;;;;5053312;28;20483;-73
2023/08/01 05:41:41;;;;;;;0.20;0.20;;;20.70;69.70;;;;;;5036035;28;20103;-73
2023/08/01 05:44:16;;;;;;;0.30;0.30;;;20.80;69.20;;;;;;5054364;28;20131;-77
2023/08/01 05:46:42;;;;;;;0.15;0.15;;;20.80;69.00;;;;;;5052562;28;20090;-76
2023/08/01 05:49:08;;;;;;;;;;;20.80;69.30;;;;;;5070601;28;20044;-76
2023/08/01 05:51:34;;;;;;;0.32;0.30;;;20.90;69.30;;;;;;5052719;28;19912;-76
2023/08/01 05:54:00;;;;;;;0.52;0.40;;;20.90;69.10;;;;;;5053152;28;20102;-77
2023/08/01 05:56:26;;;;;;;0.65;0.40;;;20.90;69.00;;;;;;5069408;28;20036;-79
2023/08/01 05:59:02;;;;;;;0.25;0.25;;;21.10;69.10;;;;;;5053092;28;20482;-75
2023/08/01 06:01:28;;;;;;;0.52;0.30;;;21.20;68.80;;;;;;5052515;28;20041;-73
2023/08/01 06:03:54;;;;;;;;;;;21.10;68.70;;;;;;5070198;28;20056;-76
2023/08/01 06:06:20;;;;;;;0.15;0.15;;;21.20;68.70;;;;;;5085992;28;19916;-76
2023/08/01 06:08:46;;;;;;;;;;;21.40;68.50;;;;;;5113294;28;20039;-76
2023/08/01 06:11:14;;;;;;;1.25;0.40;;;21.40;68.40;;;;;;5094096;28;20329;-76
2023/08/01 06:13:40;;;;;;;0.38;0.30;;;21.50;68.10;;;;;;5096349;28;20032;-76
2023/08/01 06:16:26;;;;;;;;;;;21.60;68.10;;;;;;5097083;28;20508;-72
2023/08/01 06:18:52;;;;;;;0.28;0.28;;;21.60;68.20;;;;;;5117371;28;19916;-73
2023/08/01 06:21:18;;;;;;;;;;;21.70;67.90;;;;;;5098471;28;20503;-72
2023/08/01 06:23:44;;;;;;;0.63;0.45;;;21.80;68.10;;;;;;5098303;28;19977;-72
2023/08/01 06:26:10;;;;;;;1.25;0.85;;;21.90;67.70;;;;;;5097929;28;20043;-73
2023/08/01 06:28:36;;;;;;;0.20;0.20;;;22.00;67.80;;;;;;5116441;28;20024;-72
2023/08/01 06:31:22;;;;;;;;;;;22.10;67.60;;;;;;5116551;28;20480;-74
2023/08/01 06:33:49;;;;;;;0.30;0.25;;;22.30;67.00;;;;;;5116026;28;19916;-76
2023/08/01 06:36:17;;;;;;;0.35;0.25;;;22.30;66.60;;;;;;5097639;28;20040;-75
2023/08/01 06:38:51;;;;;;;0.80;0.35;;;22.40;66.90;;;;;;5116324;28;20063;-72
2023/08/01 06:41:17;;;;;;;1.25;0.50;;;22.40;65.90;;;;;;5098747;28;20036;-76
2023/08/01 06:43:51;;;;;;;;;;;22.60;65.90;;;;;;5117015;28;20040;-77
2023/08/01 06:46:17;;;;;;;0.75;0.40;;;22.70;66.00;;;;;;5115247;28;20305;-76
2023/08/01 06:48:43;;;;;;;;;;;22.80;65.40;;;;;;5098581;28;20434;-72
2023/08/01 06:51:21;;;;;;;0.63;0.38;;;23.00;65.70;;;;;;5114607;28;20006;-76
2023/08/01 06:53:47;;;;;;;0.80;0.80;;;23.10;64.90;;;;;;5097869;28;20122;-72
2023/08/01 06:56:13;;;;;;;;;;;23.30;64.30;;;;;;5116027;28;20043;-76
2023/08/01 06:58:39;;;;;;;1.00;0.40;;;23.30;64.60;;;;;;5114693;28;19926;-76
2023/08/01 07:01:05;;;;;;;;;;;23.40;64.10;;;;;;5116239;28;20140;-73
2023/08/01 07:03:31;;;;;;;1.50;0.93;;;23.40;64.70;;;;;;5123635;27;19919;-76
2023/08/01 07:06:00;;;;;;;0.50;0.50;;;23.60;64.00;;;;;;5117818;27;20047;-77
2023/08/01 07:08:57;;;;;;;;;;;;;;;;;;;;;
2023/08/01 07:11:41;;;;;;;0.60;0.60;;;24.10;63.30;;;;;;5092339;28;20044;-72
2023/08/01 07:14:15;;;;;;;0.22;0.22;;;24.50;62.70;;;;;;5075996;28;20044;-76
2023/08/01 07:16:41;;;;;;;0.40;0.30;;;24.70;62.20;;;;;;5092078;28;20048;-72
2023/08/01 07:19:07;;;;;;;;;;;24.70;62.00;;;;;;5076572;28;20039;-76
2023/08/01 07:21:33;;;;;;;0.30;0.30;;;24.90;62.60;;;;;;5092371;28;20466;-75
2023/08/01 07:24:06;;;;;;;;;;;25.20;60.90;;;;;;5092959;28;20051;-76
2023/08/01 07:26:32;;;;;;;1.02;0.73;;;25.50;61.20;;;;;;5074522;28;19912;-79
2023/08/01 07:29:03;;;;;;;0.65;0.50;;;25.70;59.10;;;;;;5075737;28;20448;-79
2023/08/01 07:31:29;;;;;;;0.65;0.57;;;25.90;58.50;;;;;;5074922;28;20126;-74
2023/08/01 07:34:00;;;;;;;0.38;0.28;;;26.10;58.40;;;;;;5075563;28;20032;-74
2023/08/01 07:36:26;;;;;;;0.55;0.40;;;26.30;57.90;;;;;;5091837;28;20574;-78
2023/08/01 07:39:12;;;;;;;0.40;0.40;;;26.20;57.80;;;;;;5075643;28;20195;-74
2023/08/01 07:41:38;;;;;;;0.53;0.40;;;26.20;57.00;;;;;;5054261;28;20101;-78
2023/08/01 07:44:04;;;;;;;0.88;0.57;;;26.30;57.20;;;;;;5092331;28;20532;-78
2023/08/01 07:46:32;;;;;;;0.40;0.40;;;26.40;57.20;;;;;;5074903;28;20062;-74
2023/08/01 07:48:59;;;;;;;0.88;0.73;;;26.30;56.60;;;;;;5101597;27;20039;-74
2023/08/01 07:51:26;;;;;;;0.63;0.30;;;26.20;56.90;;;;;;5135114;27;20027;-77
2023/08/01 07:53:54;;;;;;;0.30;0.30;;;26.20;57.10;;;;;;5117062;27;20167;-73
2023/08/01 07:56:20;;;;;;;0.55;0.47;;;26.20;57.00;;;;;;5116532;27;20039;-78
2023/08/01 07:58:49;;;;;;;0.20;0.20;;;26.20;57.30;;;;;;5116781;27;20027;-77
2023/08/01 08:01:15;;;;;;;0.10;0.10;;;26.30;56.50;;;;;;5116379;27;20032;-77
2023/08/01 08:03:41;;;;;;;1.60;1.15;;;26.30;57.10;;;;;;5133715;27;20046;-79
2023/08/01 08:06:29;;;;;;;0.30;0.30;;;26.20;57.40;;;;;;5116339;27;20039;-78
2023/08/01 08:08:55;;;;;;;0.45;0.28;;;26.20;57.50;;;;;;5116795;27;20055;-78
2023/08/01 08:11:23;;;;;;;0.60;0.50;;;26.30;56.80;;;;;;5135049;27;20031;-78
2023/08/01 08:13:49;;;;;;;0.20;0.20;;;26.60;56.10;;;;;;5099813;27;20103;-74
2023/08/01 08:16:25;;;;;;;1.02;0.60;;;26.90;56.20;;;;;;5134773;27;20035;-74
2023/08/01 08:18:51;;;;;;;1.73;0.57;;;27.40;54.10;;;;;;5116821;27;20055;-75
2023/08/01 08:21:20;;;;;;;0.80;0.45;;;27.80;53.10;;;;;;5134474;27;20443;-77
2023/08/01 08:23:46;;;;;;;0.57;0.50;;;28.10;53.50;;;;;;5116589;27;20403;-78
2023/08/01 08:26:12;;;;;;;0.38;0.38;;;28.50;52.20;;;;;;5132962;27;20031;-78
2023/08/01 08:28:39;;;;;;;1.27;0.85;;;29.00;52.00;;;;;;5116686;27;20027;-74
2023/08/01 08:31:05;;;;;;;0.35;0.35;;;29.70;50.20;;;;;;5115637;27;20023;-78
2023/08/01 08:33:31;;;;;;;0.22;0.22;;;30.10;48.10;;;;;;5134541;27;20039;-74
2023/08/01 08:35:58;;;;;;;0.30;0.30;;;30.10;48.60;;;;;;5115763;27;20088;-75
2023/08/01 08:38:38;;;;;;;0.47;0.40;;;30.20;48.50;;;;;;5116096;27;20043;-79
2023/08/01 08:41:26;;;;;;;0.22;0.22;;;30.20;48.70;;;;;;5134050;27;20042;-78
2023/08/01 08:43:57;;;;;;;0.47;0.40;;;30.10;48.10;;;;;;5115731;27;20092;-79
2023/08/01 08:46:44;;;;;;;1.60;0.88;;;29.90;47.80;;;;;;5134039;27;20084;-74
2023/08/01 08:49:11;;;;;;;0.30;0.30;;;29.70;47.90;;;;;;5050678;28;20044;-74
2023/08/01 08:51:38;;;;;;;0.35;0.35;;;29.40;48.20;;;;;;5050353;28;20041;-80
2023/08/01 08:54:16;;;;;;;0.30;0.30;;;29.40;48.60;;;;;;5033873;28;20064;-74
2023/08/01 08:56:43;;;;;;;0.22;0.20;;;29.30;47.90;;;;;;5033601;28;20107;-80
2023/08/01 08:59:10;;;;;;;0.52;0.45;;;29.30;47.80;;;;;;5050498;28;20033;-76
2023/08/01 09:04:45;;;;;;;15.90;1.08;;;29.00;48.80;;;;;;5036473;28;20068;-74
2023/08/01 09:07:15;;;;;;;0.63;0.40;;;29.00;48.70;;;;;;5050091;28;20571;-79
2023/08/01 09:09:41;;;;;;;0.40;0.35;;;29.00;48.70;;;;;;5033936;28;20044;-74
2023/08/01 09:12:09;;;;;;;0.65;0.47;;;29.00;48.00;;;;;;5033319;28;20521;-80
2023/08/01 09:14:35;;;;;;;0.57;0.40;;;29.00;48.70;;;;;;5033588;28;20386;-81
2023/08/01 09:17:41;;;;;;;0.50;0.50;;;29.00;48.20;;;;;;5049701;28;20045;-81
2023/08/01 09:20:08;;;;;;;0.40;0.40;;;29.00;48.30;;;;;;5049845;28;20091;-74
2023/08/01 09:22:45;;;;;;;0.70;0.68;;;29.10;47.10;;;;;;5050231;28;20044;-74
2023/08/01 09:25:33;;;;;;;0.50;0.45;;;29.30;47.30;;;;;;5052841;28;20409;-74
2023/08/01 09:27:59;;;;;;;0.57;0.40;;;29.80;46.20;;;;;;5113108;28;20036;-78
2023/08/01 09:30:28;;;;;;;0.88;0.60;;;30.50;44.80;;;;;;5112579;28;20110;-74
2023/08/01 09:32:56;;;;;;;0.63;0.50;;;31.30;43.20;;;;;;5113474;28;20046;-79
2023/08/01 09:35:23;;;;;;;0.32;0.32;;;32.20;42.30;;;;;;5077607;28;20395;-75
2023/08/01 09:37:49;;;;;;;1.13;0.98;;;33.40;39.60;;;;;;5095074;28;20036;-76
2023/08/01 09:40:18;;;;;;;1.25;1.15;;;34.30;37.70;;;;;;5112500;28;20028;-81
2023/08/01 09:42:47;;;;;;;1.08;0.98;;;34.80;37.10;;;;;;5095248;28;20488;-80
2023/08/01 09:45:22;;;;;;;1.02;0.77;;;35.10;36.10;;;;;;5094201;28;20438;-80
2023/08/01 09:47:48;;;;;;;0.40;0.40;;;35.00;35.70;;;;;;5113068;28;20031;-80
2023/08/01 09:50:22;;;;;;;0.30;0.30;;;35.00;35.90;;;;;;5094354;28;20955;-77
2023/08/01 09:52:52;;;;;;;0.70;0.70;;;35.00;34.60;;;;;;5095148;28;20032;-76
2023/08/01 09:55:40;;;;;;;0.30;0.25;;;35.30;33.00;;;;;;5094952;28;20155;-84
2023/08/01 09:58:10;;;;;;;0.63;0.60;;;34.90;33.40;;;;;;5094784;28;20039;-76
2023/08/01 10:00:37;;;;;;;1.10;0.50;;;34.50;33.70;;;;;;5111048;28;20027;-77
2023/08/01 10:03:04;;;;;;;0.70;0.52;;;34.20;34.80;;;;;;5094809;28;20063;-80
2023/08/01 10:05:53;;;;;;;0.73;0.60;;;34.20;35.40;;;;;;5112575;28;20035;-77
2023/08/01 10:08:21;;;;;;;0.50;0.50;;;34.40;35.30;;;;;;5112710;28;20417;-81
2023/08/01 10:10:48;;;;;;;1.23;1.00;;;35.40;33.90;;;;;;5112386;28;20099;-76
2023/08/01 10:13:15;;;;;;;0.40;0.40;;;36.40;31.50;;;;;;5111318;28;20035;-76
2023/08/01 10:15:41;;;;;;;0.30;0.30;;;36.30;31.90;;;;;;5110529;28;20555;-79
2023/08/01 10:18:11;;;;;;;0.40;0.40;;;36.50;31.00;;;;;;5111368;28;20032;-75
2023/08/01 10:20:38;;;;;;;4.88;1.30;;;36.90;30.30;;;;;;5111072;28;20031;-76
2023/08/01 10:23:06;;;;;;;0.65;0.60;;;36.80;29.60;;;;;;5111499;28;20024;-82
2023/08/01 10:25:36;;;;;;;0.60;0.60;;;36.90;30.20;;;;;;5110800;28;20388;-80
2023/08/01 10:28:49;;;;;;;0.50;0.50;;;38.00;29.10;;;;;;5112546;28;20048;-77
2023/08/01 10:31:18;;;;;;;1.17;0.90;;;38.70;27.40;;;;;;5093580;28;20480;-76
2023/08/01 10:34:06;;;;;;;0.50;0.50;;;38.60;27.20;;;;;;5111274;28;20484;-76
2023/08/01 10:36:32;;;;;;;0.60;0.60;;;38.80;27.90;;;;;;5110674;28;20040;-77
2023/08/01 10:39:01;;;;;;;3.10;1.80;;;39.60;27.60;;;;;;5112826;28;20031;-79
2023/08/01 10:41:50;;;;;;;0.85;0.82;;;40.00;26.70;;;;;;5110952;28;20034;-76
2023/08/01 10:44:16;;;;;;;1.58;0.60;;;41.00;26.50;;;;;;5111009;28;20452;-77
2023/08/01 10:46:51;;;;;;;0.50;0.50;;;42.60;24.80;;;;;;5110746;28;20074;-76
2023/08/01 10:49:19;;;;;;;0.50;0.50;;;43.30;23.70;;;;;;5111061;28;20369;-80
2023/08/01 10:51:46;;;;;;;0.77;0.77;;;42.40;24.00;;;;;;5110864;28;20043;-76
2023/08/01 10:54:34;;;;;;;0.40;0.40;;;41.00;24.00;;;;;;5111151;28;20061;-80
2023/08/01 10:57:01;;;;;;;0.90;0.90;;;40.30;24.80;;;;;;5110701;28;20111;-79
2023/08/01 10:59:28;;;;;;;0.50;0.50;;;40.30;25.90;;;;;;5111300;28;20088;-77
2023/08/01 11:01:59;;;;;;;1.40;1.05;;;41.60;24.50;;;;;;5114044;28;20093;-78
2023/08/01 11:04:25;;;;;;;2.17;1.10;;;43.20;23.80;;;;;;5114625;28;20488;-77
2023/08/01 11:10:11;;;;;;;0.60;0.60;;;45.40;21.20;;;;;;5116166;28;20532;-76
2023/08/01 11:12:56;;;;;;;1.00;0.80;;;45.90;20.60;;;;;;5117462;27;20502;-76
2023/08/01 11:15:22;;;;;;;;;;;46.30;19.30;;;;;;5114704;28;20050;-76
2023/08/01 11:17:54;;;;;;;1.77;1.00;;;45.90;19.60;;;;;;5097435;28;20028;-80
2023/08/01 11:20:42;;;;;;;1.42;1.10;;;45.60;19.80;;;;;;5114085;28;20035;-83
2023/08/01 11:23:08;;;;;;;3.30;1.05;;;45.90;19.70;;;;;;5114936;28;20082;-84
2023/08/01 11:26:00;;;;;;;1.10;1.00;;;46.00;20.10;;;;;;5113687;28;20523;-76
2023/08/01 11:28:26;;;;;;;1.48;1.17;;;46.30;19.70;;;;;;5115661;28;20067;-80
2023/08/01 11:30:58;;;;;;;1.50;1.30;;;46.80;19.10;;;;;;5096423;28;20053;-79
2023/08/01 11:33:24;;;;;;;0.93;0.85;;;47.30;19.20;;;;;;5115511;28;20067;-80
2023/08/01 11:36:10;;;;;;;1.45;1.30;;;48.20;19.10;;;;;;5096560;28;20397;-80
2023/08/01 11:38:39;;;;;;;1.40;1.13;;;48.60;18.10;;;;;;5113989;28;20031;-76
2023/08/01 11:41:26;;;;;;;4.13;1.90;;;49.30;16.30;;;;;;5113488;28;20369;-76
2023/08/01 11:43:54;;;;;;;1.40;1.20;;;49.50;16.80;;;;;;5092330;28;20041;-82
2023/08/01 11:46:22;;;;;;;1.52;1.35;;;50.20;16.80;;;;;;5074829;28;20032;-82
2023/08/01 11:51:58;;;;;;;1.40;1.30;;;51.40;15.30;;;;;;5077534;28;20538;-77
2023/08/01 11:54:24;;;;;;;1.40;1.30;;;52.60;15.20;;;;;;5075286;28;20055;-81
2023/08/01 11:57:03;;;;;;;1.98;1.80;;;53.10;15.10;;;;;;5074719;28;20154;-77
2023/08/01 11:59:29;;;;;;;2.17;1.80;;;52.60;14.60;;;;;;5075183;28;20131;-80
2023/08/01 12:01:58;;;;;;;1.65;1.55;;;51.70;15.30;;;;;;5074370;28;20093;-80
2023/08/01 12:04:26;;;;;;;1.50;1.40;;;52.20;15.40;;;;;;5062025;28;20048;-81
2023/08/01 12:06:56;;;;;;;2.00;1.80;;;52.00;15.00;;;;;;5054524;28;20047;-82
2023/08/01 12:09:22;;;;;;;2.17;1.98;;;51.50;14.80;;;;;;5038335;28;20135;-81
2023/08/01 12:12:06;;;;;;;1.80;1.63;;;50.40;15.60;;;;;;5070694;28;20044;-79
2023/08/01 12:14:32;;;;;;;1.90;1.70;;;49.60;16.70;;;;;;5070450;28;20122;-80
2023/08/01 12:16:58;;;;;;;2.28;1.90;;;48.30;17.60;;;;;;5112707;28;20085;-79
2023/08/01 12:19:24;;;;;;;1.70;1.60;;;47.40;18.40;;;;;;5079345;28;20063;-80
2023/08/01 12:21:50;;;;;;;1.20;1.10;;;46.50;18.70;;;;;;5095768;28;20036;-80
2023/08/01 12:24:17;;;;;;;1.15;1.05;;;45.50;20.00;;;;;;5095913;28;20051;-80
2023/08/01 12:26:43;;;;;;;1.23;1.13;;;44.80;20.10;;;;;;5095503;28;20396;-79
2023/08/01 12:29:10;;;;;;;1.55;1.42;;;44.30;21.10;;;;;;5113994;28;20028;-76
2023/08/01 12:31:36;;;;;;;1.90;1.10;;;44.30;21.90;;;;;;5112712;28;20053;-76
2023/08/01 12:34:05;;;;;;;1.30;1.20;;;45.30;21.70;;;;;;5095934;28;20028;-76
2023/08/01 12:36:31;;;;;;;1.10;1.00;;;45.70;20.10;;;;;;5112295;28;20115;-76
2023/08/01 12:38:57;;;;;;;0.90;0.90;;;45.90;19.90;;;;;;5095826;28;20048;-75
2023/08/01 12:41:23;;;;;;;1.42;1.08;;;46.00;19.90;;;;;;5112398;28;20055;-77
2023/08/01 12:44:05;;;;;;;0.90;0.90;;;45.10;20.60;;;;;;5095892;28;20476;-76
2023/08/01 12:46:31;;;;;;;0.88;0.88;;;44.20;21.30;;;;;;5095339;28;20499;-76
2023/08/01 12:48:58;;;;;;;1.77;1.27;;;43.60;21.60;;;;;;5095413;28;20032;-79
2023/08/01 12:51:24;;;;;;;1.30;0.95;;;43.70;22.30;;;;;;5095271;28;20047;-77
2023/08/01 12:53:53;;;;;;;0.60;0.60;;;44.10;21.90;;;;;;5095455;28;20043;-77
2023/08/01 12:56:39;;;;;;;1.00;0.90;;;43.60;22.60;;;;;;5078035;28;20032;-77
2023/08/01 12:59:05;;;;;;;0.70;0.70;;;43.90;22.70;;;;;;5093467;28;20051;-76
2023/08/01 13:01:31;;;;;;;1.08;0.98;;;45.40;22.30;;;;;;5113121;28;20431;-80
2023/08/01 13:03:57;;;;;;;1.58;0.90;;;45.80;21.50;;;;;;5101298;28;20055;-80
2023/08/01 13:06:23;;;;;;;0.90;0.80;;;44.80;22.10;;;;;;5113108;28;20393;-76
2023/08/01 13:08:49;;;;;;;0.93;0.73;;;43.70;22.70;;;;;;5112249;28;20039;-77
2023/08/01 13:11:16;;;;;;;0.68;0.68;;;42.60;23.70;;;;;;5111705;28;20111;-80
2023/08/01 13:13:46;;;;;;;0.80;0.80;;;41.70;24.60;;;;;;5095051;28;20056;-76
2023/08/01 13:16:12;;;;;;;1.00;0.95;;;41.00;25.70;;;;;;5095010;28;20023;-80
2023/08/01 13:18:43;;;;;;;0.60;0.60;;;40.20;26.60;;;;;;5111911;28;20076;-78
2023/08/01 13:21:15;;;;;;;0.50;0.50;;;40.10;27.40;;;;;;5095286;28;20077;-80
2023/08/01 13:23:41;;;;;;;0.95;0.88;;;39.50;26.00;;;;;;5111215;28;20499;-77
2023/08/01 13:26:07;;;;;;;1.05;0.82;;;38.90;26.00;;;;;;5111487;28;20062;-81
2023/08/01 13:28:33;;;;;;;0.80;0.80;;;38.40;26.40;;;;;;5112003;28;20042;-77
2023/08/01 13:31:02;;;;;;;1.05;0.70;;;37.80;26.50;;;;;;5111436;28;20032;-77
2023/08/01 13:33:31;;;;;;;0.45;0.45;;;37.40;27.30;;;;;;5113165;28;20043;-77